Time;durP1;ratioP1;P1;durP2;ratioP2;P2;SDS_P1;SDS_P2;PMS_P1;PMS_P2;Temp;Humidity;BMP_temperature;BMP_pressure;BME280_temperature;BME280_humidity;BME280_pressure;Samples;Min_cycle;Max_cycle;Signal;HPM_P1;HPM_P2
2024/02/15 00:01:42;;;;;;;21.83;7.60;;;;;;;5.44;65.46;93305.88;2065315;69;20187;-77
2024/02/15 00:04:08;;;;;;;24.00;8.52;;;;;;;5.57;64.49;93311.22;2064776;69;20524;-78
2024/02/15 00:06:34;;;;;;;20.70;7.95;;;;;;;5.58;65.52;93315.50;2065436;69;20159;-77
2024/02/15 00:09:02;;;;;;;21.27;8.10;;;;;;;5.59;65.10;93312.16;2065377;69;20437;-78
2024/02/15 00:11:28;;;;;;;16.27;7.25;;;;;;;5.60;65.26;93298.94;2065131;69;20156;-78
2024/02/15 00:13:56;;;;;;;12.30;6.70;;;;;;;5.70;64.85;93293.50;2064906;69;20148;-76
2024/02/15 00:16:23;;;;;;;13.48;6.45;;;;;;;5.12;66.77;93293.28;2065494;69;20187;-75
2024/02/15 00:18:49;;;;;;;14.77;6.93;;;;;;;5.30;67.24;93296.97;2065263;69;20281;-75
2024/02/15 00:21:15;;;;;;;14.88;6.38;;;;;;;5.60;65.82;93296.88;2065343;69;20133;-77
2024/02/15 00:23:43;;;;;;;13.98;6.30;;;;;;;5.66;65.61;93301.50;2065313;69;20230;-78
2024/02/15 00:26:11;;;;;;;12.90;6.50;;;;;;;5.41;66.52;93293.78;2065364;69;20141;-77
2024/02/15 00:28:37;;;;;;;12.23;5.78;;;;;;;5.68;65.69;93308.03;2065355;69;20149;-78
2024/02/15 00:31:03;;;;;;;13.02;6.18;;;;;;;5.57;65.97;93314.03;2065333;69;20155;-78
2024/02/15 00:33:29;;;;;;;17.95;6.85;;;;;;;5.63;65.63;93311.75;2064819;69;20149;-78
2024/02/15 00:35:54;;;;;;;16.63;6.15;;;;;;;5.73;65.97;93309.88;2065311;69;20207;-80
2024/02/15 00:38:20;;;;;;;18.20;6.22;;;;;;;5.61;66.06;93317.91;2065255;69;20607;-77
2024/02/15 00:40:46;;;;;;;16.08;6.63;;;;;;;5.57;66.12;93314.03;2064809;69;20153;-79
2024/02/15 00:43:11;;;;;;;14.70;6.78;;;;;;;5.81;65.77;93307.78;2065542;69;20129;-79
2024/02/15 00:45:37;;;;;;;16.48;5.80;;;;;;;5.91;64.80;93307.16;2065343;69;20206;-77
2024/02/15 00:48:03;;;;;;;13.65;6.38;;;;;;;5.64;65.87;93320.91;2064596;69;20137;-78
2024/02/15 00:50:29;;;;;;;19.80;6.72;;;;;;;5.91;65.36;93315.56;2065383;69;20147;-75
2024/02/15 00:52:58;;;;;;;14.70;6.10;;;;;;;5.93;64.93;93319.31;2065309;69;20157;-79
2024/02/15 00:55:25;;;;;;;12.57;5.88;;;;;;;5.62;65.74;93301.91;2064810;69;20149;-78
2024/02/15 00:57:51;;;;;;;12.98;5.68;;;;;;;5.95;65.17;93310.34;2065467;69;20176;-77
2024/02/15 01:00:26;;;;;;;12.40;5.75;;;;;;;6.01;65.11;93297.66;2067581;69;20164;-79
2024/02/15 01:02:55;;;;;;;14.82;5.68;;;;;;;5.85;65.84;93293.41;2064619;69;20157;-78
2024/02/15 01:05:24;;;;;;;12.88;6.05;;;;;;;5.58;66.54;93299.47;2062171;69;20612;-78
2024/02/15 01:07:50;;;;;;;14.75;6.13;;;;;;;5.82;66.08;93288.97;2065407;69;20156;-79
2024/02/15 01:10:16;;;;;;;16.42;6.57;;;;;;;5.94;65.80;93301.22;2065388;69;20149;-78
2024/02/15 01:12:41;;;;;;;13.20;5.63;;;;;;;6.11;65.01;93300.59;2065059;69;20620;-78
2024/02/15 01:15:08;;;;;;;12.98;6.03;;;;;;;5.94;65.53;93301.22;2065308;69;20183;-79
2024/02/15 01:17:35;;;;;;;12.57;5.90;;;;;;;5.96;66.00;93303.47;2064682;69;20141;-76
2024/02/15 01:20:02;;;;;;;13.77;5.35;;;;;;;6.14;65.59;93298.69;2065198;69;20178;-80
2024/02/15 01:22:27;;;;;;;11.55;5.18;;;;;;;6.18;64.51;93299.06;2064664;69;20228;-76
2024/02/15 01:28:44;;;;;;;12.68;6.25;;;;;;;5.72;66.77;93280.44;2065226;69;20185;-78
2024/02/15 01:31:11;;;;;;;13.80;5.45;;;;;;;5.63;66.45;93277.50;2061789;69;20164;-78
2024/02/15 01:33:37;;;;;;;12.85;6.10;;;;;;;5.87;66.39;93288.03;2064805;69;20133;-79
2024/02/15 01:36:04;;;;;;;12.40;6.22;;;;;;;5.82;66.41;93289.72;2065253;69;20156;-78
2024/02/15 01:38:30;;;;;;;15.18;6.32;;;;;;;5.72;66.57;93294.41;2065042;69;20172;-78
2024/02/15 01:40:55;;;;;;;14.00;5.93;;;;;;;5.80;66.50;93278.34;2065152;69;20588;-76
2024/02/15 01:43:21;;;;;;;14.77;6.03;;;;;;;5.96;65.76;93279.06;2065012;69;20270;-76
2024/02/15 01:45:48;;;;;;;12.65;5.03;;;;;;;5.98;65.49;93272.91;2065151;69;20149;-77
2024/02/15 01:48:16;;;;;;;10.95;5.40;;;;;;;5.92;65.60;93277.97;2065156;69;20655;-75
2024/02/15 01:50:43;;;;;;;9.70;5.07;;;;;;;5.90;65.60;93278.50;2065152;69;20233;-76
2024/02/15 01:53:11;;;;;;;12.88;5.20;;;;;;;5.46;67.49;93278.88;2065076;69;20133;-76
2024/02/15 01:55:37;;;;;;;10.23;5.25;;;;;;;5.65;66.52;93278.44;2065163;69;20135;-77
2024/02/15 01:58:03;;;;;;;12.13;5.80;;;;;;;5.82;65.63;93267.38;2064942;69;20580;-78
2024/02/15 02:00:30;;;;;;;11.57;5.53;;;;;;;5.70;65.85;93265.56;2065238;69;20129;-79
2024/02/15 02:02:59;;;;;;;15.55;6.28;;;;;;;5.77;65.96;93268.31;2065261;69;20175;-79
2024/02/15 02:05:28;;;;;;;14.35;5.70;;;;;;;5.75;66.76;93259.75;2065096;69;20198;-79
2024/02/15 02:07:53;;;;;;;11.90;5.82;;;;;;;5.84;66.15;93256.34;2064970;69;20171;-77
2024/02/15 02:10:20;;;;;;;12.95;5.13;;;;;;;5.84;66.29;93259.16;2064393;69;20133;-79
2024/02/15 02:12:45;;;;;;;10.98;4.80;;;;;;;5.94;66.05;93250.91;2064837;69;20133;-79
2024/02/15 02:15:11;;;;;;;11.48;5.15;;;;;;;5.83;66.49;93251.34;2065045;69;20202;-78
2024/02/15 02:17:37;;;;;;;13.70;6.13;;;;;;;5.69;66.52;93259.22;2061599;69;20145;-80
2024/02/15 02:20:08;;;;;;;17.13;5.95;;;;;;;5.74;66.21;93255.47;2064799;69;20148;-77
2024/02/15 02:22:36;;;;;;;14.93;5.90;;;;;;;5.64;66.41;93251.81;2065033;69;20191;-77
2024/02/15 02:25:03;;;;;;;13.82;5.80;;;;;;;5.72;66.49;93246.91;2064646;69;20169;-76
2024/02/15 02:27:29;;;;;;;13.65;5.55;;;;;;;5.72;66.38;93255.28;2065273;69;20136;-74
2024/02/15 02:29:58;;;;;;;12.55;5.38;;;;;;;5.34;67.87;93250.59;2065390;69;20149;-78
2024/02/15 02:32:24;;;;;;;11.68;5.47;;;;;;;5.54;67.73;93243.28;2065081;69;20536;-77
2024/02/15 02:34:50;;;;;;;10.98;5.53;;;;;;;5.55;67.67;93247.56;2065454;69;20597;-76
2024/02/15 02:37:16;;;;;;;13.10;5.53;;;;;;;5.65;66.76;93244.91;2065360;69;20141;-78
2024/02/15 02:39:43;;;;;;;10.10;5.20;;;;;;;5.65;67.24;93247.69;2065600;69;20152;-75
2024/02/15 02:42:09;;;;;;;12.48;5.50;;;;;;;5.61;67.34;93241.75;2065624;69;20152;-76
2024/02/15 02:48:22;;;;;;;10.63;5.05;;;;;;;5.60;66.52;93240.28;2065437;69;20158;-76
2024/02/15 02:50:49;;;;;;;11.77;5.35;;;;;;;5.35;67.09;93240.91;2065524;69;20144;-78
2024/02/15 02:53:15;;;;;;;18.38;5.53;;;;;;;5.45;67.02;93243.88;2065529;69;20148;-77
2024/02/15 02:55:42;;;;;;;11.00;5.78;;;;;;;5.33;67.43;93253.97;2065375;69;20347;-75
2024/02/15 02:58:08;;;;;;;14.40;5.28;;;;;;;5.42;67.52;93244.25;2065394;69;20140;-77
2024/02/15 03:00:34;;;;;;;11.15;5.20;;;;;;;5.37;67.16;93237.59;2065494;69;20163;-75
2024/02/15 03:03:01;;;;;;;11.27;5.32;;;;;;;5.46;67.28;93250.94;2065393;69;20144;-76
2024/02/15 03:05:27;;;;;;;13.35;5.80;;;;;;;5.47;67.42;93241.25;2065511;69;20218;-75
2024/02/15 03:07:52;;;;;;;12.57;5.45;;;;;;;5.46;67.63;93241.84;2065614;69;20540;-76
2024/02/15 03:10:18;;;;;;;11.88;4.85;;;;;;;5.54;67.36;93240.50;2065545;69;20235;-76
2024/02/15 03:16:32;;;;;;;10.65;4.38;;;;;;;5.23;68.15;93234.28;2065640;69;20143;-75
2024/02/15 03:18:58;;;;;;;9.77;4.60;;;;;;;4.90;69.39;93238.25;2065482;69;20133;-77
2024/02/15 03:21:23;;;;;;;8.07;4.38;;;;;;;5.15;68.04;93241.94;2065285;69;20180;-76
2024/02/15 03:23:49;;;;;;;9.30;5.15;;;;;;;5.26;67.76;93235.19;2065298;69;20152;-75
2024/02/15 03:26:15;;;;;;;11.25;4.95;;;;;;;5.29;67.64;93242.44;2065445;69;20254;-75
2024/02/15 03:28:40;;;;;;;10.05;4.80;;;;;;;4.96;68.72;93239.56;2065542;69;20678;-74
2024/02/15 03:31:07;;;;;;;10.45;5.38;;;;;;;5.12;68.46;93243.03;2065415;69;20703;-76
2024/02/15 03:33:34;;;;;;;12.23;5.03;;;;;;;5.23;68.33;93239.88;2065274;69;20148;-75
2024/02/15 03:36:00;;;;;;;12.48;4.85;;;;;;;5.30;68.11;93239.09;2065270;69;20145;-79
2024/02/15 03:38:29;;;;;;;10.32;4.32;;;;;;;5.23;68.66;93233.53;2065356;69;20144;-78
2024/02/15 03:40:55;;;;;;;10.25;4.20;;;;;;;5.28;68.19;93238.19;2065470;69;20242;-77
2024/02/15 03:43:23;;;;;;;12.50;4.40;;;;;;;5.17;67.97;93225.34;2064707;69;20596;-79
2024/02/15 03:45:49;;;;;;;8.07;3.95;;;;;;;5.10;68.81;93228.94;2065381;69;20240;-75
2024/02/15 03:48:15;;;;;;;8.40;3.95;;;;;;;5.16;68.69;93235.03;2064829;69;20148;-77
2024/02/15 03:50:45;;;;;;;8.50;4.00;;;;;;;5.16;68.43;93232.25;2065179;69;20169;-77
2024/02/15 03:53:13;;;;;;;9.77;4.18;;;;;;;5.18;67.81;93220.50;2064817;69;20168;-77
2024/02/15 03:55:39;;;;;;;7.15;3.00;;;;;;;5.10;68.02;93224.09;2065494;69;20292;-73
2024/02/15 03:58:05;;;;;;;10.38;4.03;;;;;;;4.76;69.53;93221.00;2065095;69;20696;-74
2024/02/15 04:00:30;;;;;;;10.00;4.80;;;;;;;4.84;69.45;93230.09;2065442;69;20402;-74
2024/02/15 04:02:56;;;;;;;8.88;4.00;;;;;;;4.75;68.24;93223.03;2065152;69;20145;-74
2024/02/15 04:05:23;;;;;;;7.32;4.15;;;;;;;4.80;68.68;93224.16;2065186;69;20298;-77
2024/02/15 04:07:48;;;;;;;13.10;4.38;;;;;;;4.80;68.86;93227.69;2065400;69;20236;-75
2024/02/15 04:10:14;;;;;;;8.73;3.85;;;;;;;4.81;68.86;93231.97;2065358;69;20263;-77
2024/02/15 04:12:41;;;;;;;11.45;6.47;;;;;;;4.67;68.62;93227.88;2065460;69;20144;-78
2024/02/15 04:15:11;;;;;;;13.10;5.22;;;;;;;4.81;68.19;93229.19;2065310;69;20575;-78
2024/02/15 04:17:40;;;;;;;9.25;5.15;;;;;;;4.81;68.67;93220.81;2064414;69;20147;-74
2024/02/15 04:20:06;;;;;;;9.60;4.57;;;;;;;4.67;69.00;93227.88;2065417;69;20156;-76
2024/02/15 04:22:43;;;;;;;6.10;3.60;;;;;;;4.64;68.90;93228.28;2065153;69;20151;-75
2024/02/15 04:25:10;;;;;;;12.98;5.93;;;;;;;4.43;69.92;93228.47;2065161;69;20133;-76
2024/02/15 04:27:35;;;;;;;13.30;5.75;;;;;;;4.63;69.65;93229.56;2065344;69;20620;-75
2024/02/15 04:30:04;;;;;;;11.10;5.68;;;;;;;4.63;69.19;93215.63;2065284;69;20169;-79
2024/02/15 04:32:33;;;;;;;12.25;5.47;;;;;;;4.63;68.16;93221.19;2064687;69;20621;-75
2024/02/15 04:35:00;;;;;;;10.35;5.53;;;;;;;4.60;68.70;93234.22;2065358;69;20759;-78
2024/02/15 04:37:28;;;;;;;10.13;4.85;;;;;;;4.57;68.50;93232.53;2065228;69;20240;-76
2024/02/15 04:39:55;;;;;;;11.98;4.63;;;;;;;4.50;68.56;93219.38;2065286;69;20691;-76
2024/02/15 04:42:21;;;;;;;15.18;5.28;;;;;;;4.39;68.73;93212.09;2065306;69;20258;-76
2024/02/15 04:44:46;;;;;;;18.40;5.25;;;;;;;4.46;68.96;93219.00;2065250;69;20143;-76
2024/02/15 04:47:12;;;;;;;11.98;4.53;;;;;;;4.51;68.22;93216.00;2065361;69;20145;-74
2024/02/15 04:49:38;;;;;;;10.75;4.00;;;;;;;4.47;68.93;93224.00;2065034;69;20145;-76
2024/02/15 04:52:05;;;;;;;8.23;3.35;;;;;;;4.51;68.01;93223.63;2065260;69;20160;-78
2024/02/15 04:54:32;;;;;;;12.02;4.18;;;;;;;4.30;68.64;93219.00;2065155;69;20266;-77
2024/02/15 04:56:58;;;;;;;15.05;4.63;;;;;;;4.37;68.36;93219.56;2064989;69;20152;-73
2024/02/15 04:59:26;;;;;;;12.20;3.92;;;;;;;4.46;68.23;93216.22;2064675;69;20141;-74
2024/02/15 05:01:52;;;;;;;10.05;3.53;;;;;;;4.43;68.15;93220.09;2065119;69;20629;-74
2024/02/15 05:04:18;;;;;;;9.27;3.00;;;;;;;4.45;68.14;93218.25;2064960;69;20141;-73
2024/02/15 05:06:45;;;;;;;8.73;3.20;;;;;;;3.69;70.40;93210.59;2065187;69;20651;-74
2024/02/15 05:09:11;;;;;;;11.63;3.60;;;;;;;3.96;69.64;93216.56;2064766;69;20149;-74
2024/02/15 05:11:45;;;;;;;11.75;3.97;;;;;;;4.07;69.11;93213.41;2065230;69;20165;-76
2024/02/15 05:14:12;;;;;;;11.07;4.20;;;;;;;4.16;68.23;93205.81;2064809;69;20178;-75
2024/02/15 05:16:43;;;;;;;9.77;4.22;;;;;;;3.67;70.60;93232.69;2065434;69;20141;-75
2024/02/15 05:19:12;;;;;;;9.55;3.88;;;;;;;3.83;70.10;93223.03;2065315;69;20255;-75
2024/02/15 05:21:38;;;;;;;7.00;3.65;;;;;;;3.83;70.00;93230.66;2065331;69;20160;-75
2024/02/15 05:24:05;;;;;;;6.55;3.80;;;;;;;3.93;69.56;93231.59;2065407;69;20141;-76
2024/02/15 05:26:30;;;;;;;8.82;3.70;;;;;;;3.88;69.64;93234.56;2065102;69;20160;-78
2024/02/15 05:28:56;;;;;;;8.05;3.33;;;;;;;3.92;69.23;93226.59;2065297;69;20204;-78
2024/02/15 05:31:25;;;;;;;6.82;3.28;;;;;;;3.87;68.69;93221.94;2065224;69;20312;-78
2024/02/15 05:33:52;;;;;;;11.80;5.03;;;;;;;3.78;69.14;93231.56;2065284;69;20151;-76
2024/02/15 05:36:20;;;;;;;12.93;5.90;;;;;;;3.70;69.23;93234.34;2065341;69;20152;-79
2024/02/15 05:38:50;;;;;;;11.77;5.20;;;;;;;3.75;68.99;93225.06;2065317;69;20599;-76
2024/02/15 05:41:16;;;;;;;15.02;7.45;;;;;;;3.68;69.80;93245.28;2065445;69;20148;-76
2024/02/15 05:43:42;;;;;;;14.45;6.30;;;;;;;3.69;69.62;93244.00;2065255;69;20187;-76
2024/02/15 05:46:08;;;;;;;12.35;5.40;;;;;;;3.72;69.73;93236.59;2065228;69;20180;-76
2024/02/15 05:48:35;;;;;;;18.30;8.38;;;;;;;3.49;70.61;93251.19;2064750;69;20224;-77
2024/02/15 05:51:02;;;;;;;14.18;6.60;;;;;;;3.49;70.68;93248.41;2065389;69;20587;-77
2024/02/15 05:53:28;;;;;;;16.33;7.50;;;;;;;3.48;70.31;93244.13;2064498;69;20152;-77
2024/02/15 05:56:00;;;;;;;15.05;6.85;;;;;;;3.47;69.95;93248.19;2064985;69;20616;-76
2024/02/15 05:58:25;;;;;;;17.90;7.40;;;;;;;3.39;70.79;93241.09;2064560;69;20149;-76
2024/02/15 06:00:51;;;;;;;13.82;6.82;;;;;;;3.43;70.59;93239.47;2065034;69;20152;-75
2024/02/15 06:03:17;;;;;;;19.17;7.40;;;;;;;3.49;70.04;93248.41;2065039;69;20137;-78
2024/02/15 06:09:32;;;;;;;17.65;6.88;;;;;;;3.48;69.83;93246.91;2065343;69;20202;-76
2024/02/15 06:11:58;;;;;;;22.08;10.43;;;;;;;3.28;70.49;93251.28;2064900;69;20581;-76
2024/02/15 06:18:14;;;;;;;21.70;8.57;;;;;;;3.34;70.50;93253.91;2065200;69;20172;-79
2024/02/15 06:20:40;;;;;;;25.65;13.93;;;;;;;3.37;70.59;93238.88;2064725;69;20152;-77
2024/02/15 06:23:07;;;;;;;28.30;14.07;;;;;;;3.42;70.87;93246.31;2064665;69;20542;-77
2024/02/15 06:25:34;;;;;;;22.00;10.85;;;;;;;3.24;71.24;93253.66;2065083;69;20152;-78
2024/02/15 06:28:02;;;;;;;19.35;9.68;;;;;;;3.41;70.48;93258.03;2064619;69;20153;-77
2024/02/15 06:41:29;;;;;;;20.25;8.75;;;;;;;3.35;70.72;93257.44;2064965;69;20152;-78
2024/02/15 06:43:55;;;;;;;19.20;9.38;;;;;;;3.42;69.74;93256.72;2064483;69;20688;-79
2024/02/15 06:46:21;;;;;;;15.77;8.50;;;;;;;3.43;70.05;93263.75;2065109;69;20141;-78
2024/02/15 06:48:46;;;;;;;17.17;9.25;;;;;;;3.44;69.75;93256.94;2064904;69;20147;-78
2024/02/15 06:51:14;;;;;;;16.95;9.40;;;;;;;3.45;70.34;93270.28;2065010;69;20153;-77
2024/02/15 06:53:41;;;;;;;12.00;7.22;;;;;;;3.41;70.78;93260.81;2065123;69;20153;-78
2024/02/15 06:56:10;;;;;;;17.13;8.05;;;;;;;3.27;71.18;93255.38;2064375;69;20153;-79
2024/02/15 06:58:36;;;;;;;16.60;8.27;;;;;;;3.39;70.38;93268.94;2064732;69;20153;-77
2024/02/15 07:01:02;;;;;;;15.65;8.23;;;;;;;3.44;69.85;93259.72;2064451;69;20239;-78
2024/02/15 07:03:32;;;;;;;15.88;7.80;;;;;;;3.39;70.09;93263.38;2064180;69;20144;-78
2024/02/15 07:05:58;;;;;;;17.25;8.10;;;;;;;3.23;70.94;93270.94;2064851;69;20152;-77
2024/02/15 07:08:26;;;;;;;16.20;8.35;;;;;;;3.38;70.32;93275.81;2065050;69;20149;-78
2024/02/15 07:10:52;;;;;;;17.38;8.40;;;;;;;3.33;70.41;93273.94;2064894;69;20149;-78
2024/02/15 07:13:18;;;;;;;12.43;6.78;;;;;;;3.45;70.44;93277.91;2065293;69;20160;-77
2024/02/15 07:15:45;;;;;;;20.70;7.97;;;;;;;3.16;71.67;93277.97;2065380;69;20237;-77
2024/02/15 07:18:12;;;;;;;20.92;9.05;;;;;;;3.38;70.64;93275.81;2065243;69;20641;-78
2024/02/15 07:20:38;;;;;;;16.98;8.13;;;;;;;3.42;70.19;93274.16;2065321;69;20164;-78
2024/02/15 07:23:05;;;;;;;17.42;8.13;;;;;;;3.41;70.00;93264.31;2065095;69;20152;-77
2024/02/15 07:25:31;;;;;;;18.15;7.88;;;;;;;3.45;70.23;93266.75;2065365;69;20284;-78
2024/02/15 07:27:56;;;;;;;17.33;8.77;;;;;;;3.39;70.69;93263.38;2065295;69;20145;-77
2024/02/15 07:30:22;;;;;;;19.58;7.75;;;;;;;3.51;70.45;93275.69;2065451;69;20601;-76
2024/02/15 07:32:49;;;;;;;20.33;8.57;;;;;;;3.58;70.48;93274.97;2064748;69;20136;-78
2024/02/15 07:35:17;;;;;;;18.70;7.65;;;;;;;3.67;70.34;93262.56;2065266;69;20194;-76
2024/02/15 07:37:57;;;;;;;15.50;8.25;;;;;;;3.86;69.34;93265.03;2065262;69;20593;-78
2024/02/15 07:40:27;;;;;;;23.05;9.23;;;;;;;3.70;70.12;93253.84;2065168;69;20651;-78
2024/02/15 07:42:57;;;;;;;23.02;9.55;;;;;;;3.86;69.48;93256.66;2065045;69;20153;-77
2024/02/15 07:45:23;;;;;;;17.83;8.10;;;;;;;3.95;69.73;93259.66;2065159;69;20613;-75
2024/02/15 07:47:53;;;;;;;15.25;8.25;;;;;;;4.07;69.18;93268.38;2065169;69;20240;-77
2024/02/15 07:50:22;;;;;;;21.67;7.50;;;;;;;4.02;69.63;93269.31;2065387;69;20157;-79
2024/02/15 07:52:49;;;;;;;12.90;7.07;;;;;;;4.12;69.77;93261.16;2064745;69;20141;-79
2024/02/15 07:55:14;;;;;;;13.85;7.95;;;;;;;4.17;69.73;93261.00;2065581;69;20145;-79
2024/02/15 07:57:41;;;;;;;16.17;8.45;;;;;;;4.20;69.44;93254.28;2064629;69;20149;-76
2024/02/15 08:00:11;;;;;;;17.83;8.60;;;;;;;4.24;69.60;93257.47;2065355;69;20148;-77
2024/02/15 08:02:42;;;;;;;32.88;15.75;;;;;;;4.22;69.69;93264.91;2065364;69;20144;-77
2024/02/15 08:05:10;;;;;;;36.05;17.30;;;;;;;4.34;69.45;93263.22;2065363;69;20570;-77
2024/02/15 08:07:42;;;;;;;36.70;12.88;;;;;;;4.44;69.37;93253.00;2065337;69;20176;-76
2024/02/15 08:10:15;;;;;;;29.20;14.52;;;;;;;4.49;69.65;93248.53;2065221;69;20141;-80
2024/02/15 08:12:45;;;;;;;29.80;14.98;;;;;;;4.58;68.60;93242.38;2065346;69;20153;-76
2024/02/15 08:15:12;;;;;;;29.60;15.77;;;;;;;4.50;68.83;93244.47;2064618;69;20580;-75
2024/02/15 08:17:48;;;;;;;29.45;15.27;;;;;;;4.48;69.08;93233.84;2065119;69;20606;-76
2024/02/15 08:20:15;;;;;;;28.67;15.63;;;;;;;4.52;69.29;93239.06;2065205;69;20272;-76
2024/02/15 08:22:41;;;;;;;30.77;15.57;;;;;;;4.60;68.46;93234.22;2064909;69;20277;-75
2024/02/15 08:25:10;;;;;;;40.25;17.48;;;;;;;4.48;69.18;93238.69;2065244;69;20160;-76
2024/02/15 08:27:40;;;;;;;25.95;13.18;;;;;;;4.54;69.51;93234.44;2065215;69;20169;-77
2024/02/15 08:30:11;;;;;;;33.15;15.60;;;;;;;4.19;70.01;93238.88;2064503;69;20148;-77
2024/02/15 08:32:41;;;;;;;33.28;17.00;;;;;;;4.52;69.48;93233.47;2065128;69;20574;-78
2024/02/15 08:35:13;;;;;;;36.78;16.88;;;;;;;4.69;68.27;93228.06;2065232;69;20209;-77
2024/02/15 08:37:41;;;;;;;38.42;19.20;;;;;;;4.85;69.96;93226.00;2065198;69;20330;-76
2024/02/15 08:40:14;;;;;;;34.70;18.00;;;;;;;5.30;70.55;93221.59;2065100;69;20683;-76
2024/02/15 08:42:43;;;;;;;40.88;20.63;;;;;;;5.79;69.83;93215.41;2065187;69;20156;-76
2024/02/15 08:45:10;;;;;;;52.42;25.35;;;;;;;6.03;69.88;93216.03;2064736;69;20149;-76
2024/02/15 08:47:37;;;;;;;49.80;24.10;;;;;;;6.39;68.66;93204.41;2064919;69;20156;-79
2024/02/15 08:50:04;;;;;;;43.22;20.20;;;;;;;6.65;67.41;93197.47;2065178;69;20520;-80
2024/02/15 08:52:30;;;;;;;25.70;13.73;;;;;;;6.98;65.72;93192.47;2065234;69;20263;-80
2024/02/15 08:54:57;;;;;;;21.27;10.70;;;;;;;7.50;65.86;93200.84;2065267;69;20228;-77
2024/02/15 08:57:23;;;;;;;18.70;8.43;;;;;;;7.64;63.72;93192.81;2064939;69;20613;-77
2024/02/15 08:59:51;;;;;;;16.38;7.68;;;;;;;8.17;63.48;93187.78;2065102;69;20607;-76
2024/02/15 09:02:18;;;;;;;21.15;11.25;;;;;;;8.83;63.06;93188.59;2064639;69;20227;-77
2024/02/15 09:04:43;;;;;;;29.65;13.48;;;;;;;9.05;62.16;93186.72;2065075;69;20145;-78
2024/02/15 09:07:09;;;;;;;14.43;8.60;;;;;;;8.83;60.19;93191.41;2065342;69;20156;-77
2024/02/15 09:13:22;;;;;;;17.05;7.57;;;;;;;9.94;58.13;93172.75;2064995;69;20158;-78
2024/02/15 09:15:48;;;;;;;17.27;7.55;;;;;;;10.18;56.80;93176.53;2065097;69;20160;-79
2024/02/15 09:18:13;;;;;;;13.82;6.10;;;;;;;9.96;56.41;93172.91;2065104;69;20189;-77
2024/02/15 09:20:44;;;;;;;14.88;6.38;;;;;;;10.28;56.33;93168.81;2065330;69;20569;-77
2024/02/15 09:23:12;;;;;;;13.05;7.25;;;;;;;10.41;56.31;93167.59;2065255;69;20141;-78
2024/02/15 09:25:44;;;;;;;13.60;5.90;;;;;;;10.88;55.49;93162.31;2065118;69;20145;-79
2024/02/15 09:28:10;;;;;;;10.02;5.63;;;;;;;11.24;55.51;93158.34;2065167;69;20149;-77
2024/02/15 09:30:36;;;;;;;10.85;4.40;;;;;;;11.35;53.25;93154.84;2065055;69;20624;-78
2024/02/15 09:33:04;;;;;;;8.90;3.85;;;;;;;11.72;53.12;93145.91;2065100;69;20164;-77
2024/02/15 09:35:31;;;;;;;7.75;3.92;;;;;;;12.16;51.69;93150.09;2065167;69;20636;-78
2024/02/15 09:37:58;;;;;;;9.07;4.80;;;;;;;12.42;51.06;93148.16;2065146;69;20144;-77
2024/02/15 09:40:29;;;;;;;7.13;4.20;;;;;;;12.85;50.37;93150.72;2065046;69;20566;-77
2024/02/15 09:42:54;;;;;;;13.82;4.40;;;;;;;12.55;49.16;93138.31;2064595;69;20149;-77
2024/02/15 09:45:20;;;;;;;13.27;3.30;;;;;;;13.56;48.88;93149.22;2065080;69;20152;-77
2024/02/15 09:47:49;;;;;;;6.57;3.45;;;;;;;14.19;49.72;93140.66;2064753;69;20660;-79
2024/02/15 09:50:17;;;;;;;6.75;3.08;;;;;;;14.27;48.59;93140.38;2065225;69;20211;-79
2024/02/15 09:52:50;;;;;;;6.95;3.72;;;;;;;14.80;46.94;93143.19;2065061;69;20202;-78
2024/02/15 09:55:16;;;;;;;7.13;2.95;;;;;;;14.83;46.05;93119.25;2064576;69;20141;-78
2024/02/15 09:57:44;;;;;;;7.15;2.28;;;;;;;14.77;44.59;93111.19;2065115;69;20254;-78
2024/02/15 10:00:15;;;;;;;6.05;2.03;;;;;;;15.48;43.27;93119.69;2065017;69;20254;-79
2024/02/15 10:02:44;;;;;;;1.85;1.17;;;;;;;16.19;43.47;93113.91;2064877;69;20156;-78
2024/02/15 10:05:13;;;;;;;1.75;1.00;;;;;;;16.52;42.06;93111.16;2065126;69;20613;-77
2024/02/15 10:07:46;;;;;;;3.05;1.08;;;;;;;16.74;40.99;93108.63;2064957;69;20133;-77
2024/02/15 10:10:21;;;;;;;;;;;;;;;15.57;40.84;93107.38;2065205;69;20344;-77
2024/02/15 10:12:54;;;;;;;7.18;2.15;;;;;;;15.64;41.35;93111.28;2065028;69;20041;-78
2024/02/15 10:15:30;;;;;;;5.38;1.08;;;;;;;16.46;40.47;93118.69;2064615;69;20251;-78
2024/02/15 10:17:58;;;;;;;2.58;0.70;;;;;;;15.87;39.45;93113.81;2065056;69;20181;-78
2024/02/15 10:20:25;;;;;;;1.60;0.80;;;;;;;16.47;39.18;93117.31;2064944;69;20176;-77
2024/02/15 10:23:11;;;;;;;1.30;0.65;;;;;;;16.45;39.17;93112.28;2065095;69;20528;-79
2024/02/15 10:25:38;;;;;;;1.08;0.65;;;;;;;16.53;37.96;93109.03;2065073;69;20141;-78
2024/02/15 10:28:12;;;;;;;1.65;0.88;;;;;;;17.59;37.57;93110.78;2065004;69;20181;-78
2024/02/15 10:34:45;;;;;;;1.67;0.88;;;;;;;18.28;37.31;93095.78;2064001;69;20234;-78
2024/02/15 10:37:18;;;;;;;1.17;0.82;;;;;;;19.48;36.07;93097.28;2065098;69;20148;-78
2024/02/15 10:39:44;;;;;;;4.32;0.90;;;;;;;19.16;35.31;93099.75;2065031;69;20175;-78
2024/02/15 10:42:11;;;;;;;1.30;0.70;;;;;;;18.94;34.90;93090.38;2065067;69;20579;-78
2024/02/15 10:44:38;;;;;;;2.38;0.75;;;;;;;19.66;34.02;93080.06;2064479;69;20299;-79
2024/02/15 10:47:06;;;;;;;1.10;0.80;;;;;;;19.22;34.82;93084.94;2065273;69;20239;-79
2024/02/15 10:49:34;;;;;;;1.05;0.63;;;;;;;18.88;34.88;93073.06;2065370;69;20165;-79
2024/02/15 10:52:04;;;;;;;1.75;0.70;;;;;;;19.67;33.83;93069.38;2065605;69;20594;-77
2024/02/15 10:54:38;;;;;;;1.10;0.68;;;;;;;19.70;35.47;93068.78;2065619;69;20184;-79
2024/02/15 10:57:05;;;;;;;0.80;0.60;;;;;;;20.95;33.85;93069.72;2065658;69;20198;-79
2024/02/15 10:59:37;;;;;;;1.13;0.60;;;;;;;21.97;31.65;93069.53;2065033;69;20152;-80
2024/02/15 11:02:22;;;;;;;1.33;0.90;;;;;;;22.48;31.45;93065.72;2064930;69;20592;-80
2024/02/15 11:04:56;;;;;;;3.13;1.30;;;;;;;22.07;32.35;93061.88;2065440;69;20153;-80
2024/02/15 11:07:28;;;;;;;1.95;0.95;;;;;;;22.53;32.26;93052.91;2065621;69;20603;-79
2024/02/15 11:09:55;;;;;;;1.55;1.20;;;;;;;22.35;32.42;93051.78;2065586;69;20212;-77
2024/02/15 11:12:23;;;;;;;2.08;1.20;;;;;;;22.28;31.68;93048.78;2065481;69;20141;-77
2024/02/15 11:14:52;;;;;;;2.28;1.33;;;;;;;21.85;32.40;93041.28;2065620;69;20179;-78
2024/02/15 11:17:37;;;;;;;2.15;1.20;;;;;;;21.91;32.40;93037.84;2065067;69;20143;-79
2024/02/15 11:20:08;;;;;;;2.08;1.20;;;;;;;23.65;30.98;93033.63;2065387;69;20248;-78
2024/02/15 11:22:38;;;;;;;1.50;1.17;;;;;;;24.38;29.15;93031.94;2065427;69;20583;-78
2024/02/15 11:25:12;;;;;;;1.70;1.20;;;;;;;24.20;29.99;93043.88;2064929;69;20274;-79
2024/02/15 11:27:39;;;;;;;1.15;1.05;;;;;;;26.19;28.04;93024.59;2065679;69;20148;-78
2024/02/15 11:30:09;;;;;;;2.60;1.33;;;;;;;26.86;27.76;93022.16;2065629;69;20121;-79
2024/02/15 11:32:55;;;;;;;2.53;1.60;;;;;;;26.43;27.61;93008.88;2065516;69;20585;-80
2024/02/15 11:35:23;;;;;;;3.65;1.30;;;;;;;25.95;28.40;93007.09;2065583;69;20214;-81
2024/02/15 11:37:58;;;;;;;5.75;1.40;;;;;;;27.23;27.08;93001.38;2065638;69;20176;-80
2024/02/15 11:40:52;;;;;;;2.13;1.50;;;;;;;26.38;27.65;92999.47;2065495;69;20148;-79
2024/02/15 11:43:46;;;;;;;1.75;1.40;;;;;;;26.62;26.11;92998.94;2065365;69;20168;-79
2024/02/15 11:46:16;;;;;;;1.13;1.02;;;;;;;27.21;26.53;92993.41;2065488;69;20163;-79
2024/02/15 11:48:42;;;;;;;2.10;1.00;;;;;;;29.18;24.89;92979.59;2065304;69;20139;-80
2024/02/15 11:51:11;;;;;;;2.42;1.25;;;;;;;29.04;24.81;92981.09;2065487;69;20237;-82
2024/02/15 11:53:37;;;;;;;3.17;1.48;;;;;;;30.47;23.78;92980.22;2065705;69;20557;-83
2024/02/15 11:56:04;;;;;;;4.28;1.30;;;;;;;31.83;23.19;92983.69;2065515;69;20167;-79
2024/02/15 11:58:51;;;;;;;2.42;1.60;;;;;;;30.07;22.70;92975.44;2065357;69;20152;-81
2024/02/15 12:20:31;;;;;;;2.33;1.10;;;;;;;39.68;17.87;92978.81;2065465;69;20152;-79
2024/02/15 12:23:00;;;;;;;0.95;0.82;;;;;;;37.67;18.77;92968.69;2065227;69;20133;-80
2024/02/15 12:25:27;;;;;;;1.88;1.10;;;;;;;36.52;18.55;92969.03;2065421;69;20149;-79
2024/02/15 12:27:59;;;;;;;2.10;1.20;;;;;;;38.74;17.45;92962.97;2065388;69;20168;-80
2024/02/15 12:30:32;;;;;;;8.52;4.88;;;;;;;39.04;16.43;92972.00;2065345;69;20597;-77
2024/02/15 12:33:19;;;;;;;3.05;2.05;;;;;;;37.47;17.88;92948.88;2065339;69;20173;-80
2024/02/15 12:35:45;;;;;;;10.50;4.85;;;;;;;39.53;16.93;92940.44;2065308;69;20141;-80